sensor_id;sensor_type;location;lat;lon;timestamp;temperature;humidity
22813;DHT22;11573;51.334;3.244;2023-04-01T00:00:00;9.40;99.90
22813;DHT22;11573;51.334;3.244;2023-04-01T00:02:27;9.40;99.90
22813;DHT22;11573;51.334;3.244;2023-04-01T00:04:54;9.40;99.90
22813;DHT22;11573;51.334;3.244;2023-04-01T00:07:21;9.40;99.90
22813;DHT22;11573;51.334;3.244;2023-04-01T00:09:49;9.40;99.90
22813;DHT22;11573;51.334;3.244;2023-04-01T00:12:16;9.50;99.90
22813;DHT22;11573;51.334;3.244;2023-04-01T00:14:43;9.40;99.90
22813;DHT22;11573;51.334;3.244;2023-04-01T00:17:10;9.40;99.90
22813;DHT22;11573;51.334;3.244;2023-04-01T00:19:37;9.40;99.90
22813;DHT22;11573;51.334;3.244;2023-04-01T00:22:04;9.40;99.90
22813;DHT22;11573;51.334;3.244;2023-04-01T00:24:31;9.40;99.90
22813;DHT22;11573;51.334;3.244;2023-04-01T00:26:58;9.40;99.90
22813;DHT22;11573;51.334;3.244;2023-04-01T00:29:25;9.40;99.90
22813;DHT22;11573;51.334;3.244;2023-04-01T00:31:57;9.40;99.90
22813;DHT22;11573;51.334;3.244;2023-04-01T00:34:24;9.40;99.90
22813;DHT22;11573;51.334;3.244;2023-04-01T00:36:52;9.40;99.90
22813;DHT22;11573;51.334;3.244;2023-04-01T00:39:20;9.30;99.90
22813;DHT22;11573;51.334;3.244;2023-04-01T00:41:47;9.30;99.90
22813;DHT22;11573;51.334;3.244;2023-04-01T00:46:44;9.40;99.90
22813;DHT22;11573;51.334;3.244;2023-04-01T00:49:13;9.30;99.90
22813;DHT22;11573;51.334;3.244;2023-04-01T00:51:41;9.30;99.90
22813;DHT22;11573;51.334;3.244;2023-04-01T00:54:10;9.30;99.90
22813;DHT22;11573;51.334;3.244;2023-04-01T00:56:43;9.30;99.90
22813;DHT22;11573;51.334;3.244;2023-04-01T00:59:16;9.30;99.90
22813;DHT22;11573;51.334;3.244;2023-04-01T01:01:43;9.30;99.90
22813;DHT22;11573;51.334;3.244;2023-04-01T01:04:28;9.30;99.90
22813;DHT22;11573;51.334;3.244;2023-04-01T01:07:28;9.30;99.90
22813;DHT22;11573;51.334;3.244;2023-04-01T01:10:18;9.30;99.90
22813;DHT22;11573;51.334;3.244;2023-04-01T01:16:00;9.30;99.90
22813;DHT22;11573;51.334;3.244;2023-04-01T01:18:43;9.20;99.90
22813;DHT22;11573;51.334;3.244;2023-04-01T01:21:42;9.20;99.90
22813;DHT22;11573;51.334;3.244;2023-04-01T01:27:11;9.20;99.90
22813;DHT22;11573;51.334;3.244;2023-04-01T01:38:21;9.20;99.90
22813;DHT22;11573;51.334;3.244;2023-04-01T01:40:56;9.20;99.90
22813;DHT22;11573;51.334;3.244;2023-04-01T01:43:29;9.20;99.90
22813;DHT22;11573;51.334;3.244;2023-04-01T01:46:00;9.20;99.90
22813;DHT22;11573;51.334;3.244;2023-04-01T01:48:29;9.30;99.90
22813;DHT22;11573;51.334;3.244;2023-04-01T01:50:57;9.30;99.90
22813;DHT22;11573;51.334;3.244;2023-04-01T01:53:25;9.30;99.90
22813;DHT22;11573;51.334;3.244;2023-04-01T01:55:52;9.20;99.90
22813;DHT22;11573;51.334;3.244;2023-04-01T01:58:29;9.30;99.90
22813;DHT22;11573;51.334;3.244;2023-04-01T02:01:00;9.20;99.90
22813;DHT22;11573;51.334;3.244;2023-04-01T02:03:33;9.30;99.90
22813;DHT22;11573;51.334;3.244;2023-04-01T02:06:03;9.30;99.90
22813;DHT22;11573;51.334;3.244;2023-04-01T02:08:35;9.20;99.90
22813;DHT22;11573;51.334;3.244;2023-04-01T02:11:06;9.30;99.90
22813;DHT22;11573;51.334;3.244;2023-04-01T02:16:11;9.20;99.90
22813;DHT22;11573;51.334;3.244;2023-04-01T02:18:41;9.30;99.90
22813;DHT22;11573;51.334;3.244;2023-04-01T02:21:09;9.30;99.90
22813;DHT22;11573;51.334;3.244;2023-04-01T02:23:37;9.30;99.90
22813;DHT22;11573;51.334;3.244;2023-04-01T02:26:06;9.20;99.90
22813;DHT22;11573;51.334;3.244;2023-04-01T02:28:37;9.20;99.90
22813;DHT22;11573;51.334;3.244;2023-04-01T02:31:05;9.20;99.90
22813;DHT22;11573;51.334;3.244;2023-04-01T02:33:33;9.20;99.90
22813;DHT22;11573;51.334;3.244;2023-04-01T02:36:00;9.10;99.90
22813;DHT22;11573;51.334;3.244;2023-04-01T02:38:27;9.10;99.90
22813;DHT22;11573;51.334;3.244;2023-04-01T02:41:00;9.10;99.90
22813;DHT22;11573;51.334;3.244;2023-04-01T02:43:27;9.10;99.90
22813;DHT22;11573;51.334;3.244;2023-04-01T02:45:55;9.10;99.90
22813;DHT22;11573;51.334;3.244;2023-04-01T02:48:22;9.10;99.90
22813;DHT22;11573;51.334;3.244;2023-04-01T02:50:49;9.10;99.90
22813;DHT22;11573;51.334;3.244;2023-04-01T02:53:16;9.10;99.90
22813;DHT22;11573;51.334;3.244;2023-04-01T02:55:43;9.10;99.90
22813;DHT22;11573;51.334;3.244;2023-04-01T02:58:11;9.00;99.90
22813;DHT22;11573;51.334;3.244;2023-04-01T03:00:38;9.00;99.90
22813;DHT22;11573;51.334;3.244;2023-04-01T03:03:05;9.00;99.90
22813;DHT22;11573;51.334;3.244;2023-04-01T03:05:33;9.10;99.90
22813;DHT22;11573;51.334;3.244;2023-04-01T03:08:01;9.00;99.90
22813;DHT22;11573;51.334;3.244;2023-04-01T03:10:28;9.00;99.90
22813;DHT22;11573;51.334;3.244;2023-04-01T03:12:55;9.10;99.90
22813;DHT22;11573;51.334;3.244;2023-04-01T03:15:22;9.00;99.90
22813;DHT22;11573;51.334;3.244;2023-04-01T03:17:49;9.00;99.90
22813;DHT22;11573;51.334;3.244;2023-04-01T03:20:16;9.00;99.90
22813;DHT22;11573;51.334;3.244;2023-04-01T03:22:43;9.00;99.90
22813;DHT22;11573;51.334;3.244;2023-04-01T03:25:10;9.00;99.90
22813;DHT22;11573;51.334;3.244;2023-04-01T03:27:38;9.10;99.90
22813;DHT22;11573;51.334;3.244;2023-04-01T03:30:07;9.00;99.90
22813;DHT22;11573;51.334;3.244;2023-04-01T03:32:40;9.00;99.90
22813;DHT22;11573;51.334;3.244;2023-04-01T03:35:08;9.00;99.90
22813;DHT22;11573;51.334;3.244;2023-04-01T03:37:36;9.00;99.90
22813;DHT22;11573;51.334;3.244;2023-04-01T03:40:03;9.10;99.90
22813;DHT22;11573;51.334;3.244;2023-04-01T03:42:31;9.10;99.90
22813;DHT22;11573;51.334;3.244;2023-04-01T03:44:59;9.00;99.90
22813;DHT22;11573;51.334;3.244;2023-04-01T03:47:26;9.00;99.90
22813;DHT22;11573;51.334;3.244;2023-04-01T03:49:54;9.00;99.90
22813;DHT22;11573;51.334;3.244;2023-04-01T03:52:21;9.00;99.90
22813;DHT22;11573;51.334;3.244;2023-04-01T03:54:48;9.00;99.90
22813;DHT22;11573;51.334;3.244;2023-04-01T03:57:16;9.00;99.90
22813;DHT22;11573;51.334;3.244;2023-04-01T03:59:43;8.90;99.90
22813;DHT22;11573;51.334;3.244;2023-04-01T04:02:10;8.90;99.90
22813;DHT22;11573;51.334;3.244;2023-04-01T04:04:38;8.90;99.90
22813;DHT22;11573;51.334;3.244;2023-04-01T04:07:05;8.90;99.90
22813;DHT22;11573;51.334;3.244;2023-04-01T04:09:51;8.90;99.90
22813;DHT22;11573;51.334;3.244;2023-04-01T04:12:18;9.00;99.90
22813;DHT22;11573;51.334;3.244;2023-04-01T04:14:44;9.00;99.90
22813;DHT22;11573;51.334;3.244;2023-04-01T04:17:11;8.90;99.90
22813;DHT22;11573;51.334;3.244;2023-04-01T04:19:43;8.90;99.90
22813;DHT22;11573;51.334;3.244;2023-04-01T04:22:11;8.90;99.90
22813;DHT22;11573;51.334;3.244;2023-04-01T04:24:38;8.90;99.90
22813;DHT22;11573;51.334;3.244;2023-04-01T04:27:08;8.90;99.90
22813;DHT22;11573;51.334;3.244;2023-04-01T04:29:42;8.90;99.90
22813;DHT22;11573;51.334;3.244;2023-04-01T04:32:09;8.90;99.90
22813;DHT22;11573;51.334;3.244;2023-04-01T04:34:36;8.90;99.90
22813;DHT22;11573;51.334;3.244;2023-04-01T04:37:03;8.90;99.90
22813;DHT22;11573;51.334;3.244;2023-04-01T04:39:34;8.90;99.90
22813;DHT22;11573;51.334;3.244;2023-04-01T04:42:02;8.90;99.90
22813;DHT22;11573;51.334;3.244;2023-04-01T04:44:29;8.90;99.90
22813;DHT22;11573;51.334;3.244;2023-04-01T04:46:57;8.90;99.90
22813;DHT22;11573;51.334;3.244;2023-04-01T04:49:25;8.80;99.90
22813;DHT22;11573;51.334;3.244;2023-04-01T04:51:52;8.80;99.90
22813;DHT22;11573;51.334;3.244;2023-04-01T04:54:22;8.80;99.90
22813;DHT22;11573;51.334;3.244;2023-04-01T04:56:55;8.80;99.90
22813;DHT22;11573;51.334;3.244;2023-04-01T04:59:24;8.70;99.90
22813;DHT22;11573;51.334;3.244;2023-04-01T05:01:58;8.80;99.90
22813;DHT22;11573;51.334;3.244;2023-04-01T05:04:27;8.80;99.90
22813;DHT22;11573;51.334;3.244;2023-04-01T05:06:54;8.70;99.90
22813;DHT22;11573;51.334;3.244;2023-04-01T05:09:22;8.80;99.90
22813;DHT22;11573;51.334;3.244;2023-04-01T05:11:49;8.80;99.90
22813;DHT22;11573;51.334;3.244;2023-04-01T05:14:18;8.80;99.90
22813;DHT22;11573;51.334;3.244;2023-04-01T05:16:54;8.80;99.90
22813;DHT22;11573;51.334;3.244;2023-04-01T05:19:21;8.70;99.90
22813;DHT22;11573;51.334;3.244;2023-04-01T05:21:48;8.70;99.90
22813;DHT22;11573;51.334;3.244;2023-04-01T05:24:15;8.70;99.90
22813;DHT22;11573;51.334;3.244;2023-04-01T05:26:43;8.70;99.90
22813;DHT22;11573;51.334;3.244;2023-04-01T05:29:10;8.70;99.90
22813;DHT22;11573;51.334;3.244;2023-04-01T05:31:38;8.70;99.90
22813;DHT22;11573;51.334;3.244;2023-04-01T05:34:05;8.70;99.90
22813;DHT22;11573;51.334;3.244;2023-04-01T05:36:32;8.70;99.90
22813;DHT22;11573;51.334;3.244;2023-04-01T05:39:00;8.70;99.90
22813;DHT22;11573;51.334;3.244;2023-04-01T05:41:27;8.70;99.90
22813;DHT22;11573;51.334;3.244;2023-04-01T05:43:54;8.70;99.90
22813;DHT22;11573;51.334;3.244;2023-04-01T05:46:39;8.70;99.90
22813;DHT22;11573;51.334;3.244;2023-04-01T05:49:16;8.70;99.90
22813;DHT22;11573;51.334;3.244;2023-04-01T05:51:43;8.70;99.90
22813;DHT22;11573;51.334;3.244;2023-04-01T05:54:11;8.70;99.90
22813;DHT22;11573;51.334;3.244;2023-04-01T05:56:39;8.70;99.90
22813;DHT22;11573;51.334;3.244;2023-04-01T05:59:06;8.70;99.90
22813;DHT22;11573;51.334;3.244;2023-04-01T06:01:33;8.70;99.90
22813;DHT22;11573;51.334;3.244;2023-04-01T06:04:00;8.70;99.90
22813;DHT22;11573;51.334;3.244;2023-04-01T06:06:29;8.70;99.90
22813;DHT22;11573;51.334;3.244;2023-04-01T06:09:19;8.70;99.90
22813;DHT22;11573;51.334;3.244;2023-04-01T06:15:17;8.70;99.90
22813;DHT22;11573;51.334;3.244;2023-04-01T06:29:04;8.70;99.90
22813;DHT22;11573;51.334;3.244;2023-04-01T06:31:52;8.70;99.90
22813;DHT22;11573;51.334;3.244;2023-04-01T06:35:01;8.70;99.90
22813;DHT22;11573;51.334;3.244;2023-04-01T06:40:44;8.80;99.90
22813;DHT22;11573;51.334;3.244;2023-04-01T06:58:38;8.70;99.90
22813;DHT22;11573;51.334;3.244;2023-04-01T07:01:14;8.70;99.90
22813;DHT22;11573;51.334;3.244;2023-04-01T07:03:50;8.70;99.90
22813;DHT22;11573;51.334;3.244;2023-04-01T07:06:35;8.70;99.90
22813;DHT22;11573;51.334;3.244;2023-04-01T07:09:12;8.70;99.90
22813;DHT22;11573;51.334;3.244;2023-04-01T07:12:02;8.70;99.90
22813;DHT22;11573;51.334;3.244;2023-04-01T07:15:05;8.80;99.90
22813;DHT22;11573;51.334;3.244;2023-04-01T07:17:36;8.70;99.90
22813;DHT22;11573;51.334;3.244;2023-04-01T07:20:17;8.80;99.90
22813;DHT22;11573;51.334;3.244;2023-04-01T07:22:49;8.80;99.90
22813;DHT22;11573;51.334;3.244;2023-04-01T07:25:37;8.90;99.90
22813;DHT22;11573;51.334;3.244;2023-04-01T07:28:39;9.00;99.90
22813;DHT22;11573;51.334;3.244;2023-04-01T07:31:50;9.00;99.90
22813;DHT22;11573;51.334;3.244;2023-04-01T07:34:25;8.90;99.90
22813;DHT22;11573;51.334;3.244;2023-04-01T07:42:35;9.00;99.90
22813;DHT22;11573;51.334;3.244;2023-04-01T07:48:10;8.90;99.90
22813;DHT22;11573;51.334;3.244;2023-04-01T07:51:10;9.00;99.90
22813;DHT22;11573;51.334;3.244;2023-04-01T07:53:46;9.10;99.90
22813;DHT22;11573;51.334;3.244;2023-04-01T08:03:04;9.10;99.90
22813;DHT22;11573;51.334;3.244;2023-04-01T08:05:57;9.00;99.90
22813;DHT22;11573;51.334;3.244;2023-04-01T08:08:40;8.80;99.90
22813;DHT22;11573;51.334;3.244;2023-04-01T08:18:11;8.90;99.90
22813;DHT22;11573;51.334;3.244;2023-04-01T08:20:59;8.90;99.90
22813;DHT22;11573;51.334;3.244;2023-04-01T08:23:30;9.00;99.90
22813;DHT22;11573;51.334;3.244;2023-04-01T08:26:10;9.00;99.90
22813;DHT22;11573;51.334;3.244;2023-04-01T08:28:57;9.00;99.90
22813;DHT22;11573;51.334;3.244;2023-04-01T08:31:37;9.00;99.90
22813;DHT22;11573;51.334;3.244;2023-04-01T08:34:15;9.00;99.90
22813;DHT22;11573;51.334;3.244;2023-04-01T08:36:52;9.10;99.90
22813;DHT22;11573;51.334;3.244;2023-04-01T08:39:48;9.00;99.90
22813;DHT22;11573;51.334;3.244;2023-04-01T08:48:04;9.10;99.90
22813;DHT22;11573;51.334;3.244;2023-04-01T09:10:18;9.10;99.90
22813;DHT22;11573;51.334;3.244;2023-04-01T09:15:49;9.10;99.90
22813;DHT22;11573;51.334;3.244;2023-04-01T09:30:05;9.60;99.90
22813;DHT22;11573;51.334;3.244;2023-04-01T09:44:22;9.40;99.90
22813;DHT22;11573;51.334;3.244;2023-04-01T09:47:26;9.40;99.90
22813;DHT22;11573;51.334;3.244;2023-04-01T10:10:38;9.50;99.90
22813;DHT22;11573;51.334;3.244;2023-04-01T10:19:03;9.70;99.90
22813;DHT22;11573;51.334;3.244;2023-04-01T10:38:59;9.80;99.90
22813;DHT22;11573;51.334;3.244;2023-04-01T10:41:55;9.70;99.90
22813;DHT22;11573;51.334;3.244;2023-04-01T10:51:04;9.60;99.90
22813;DHT22;11573;51.334;3.244;2023-04-01T10:57:20;9.60;99.90
22813;DHT22;11573;51.334;3.244;2023-04-01T11:01:02;9.50;99.90
22813;DHT22;11573;51.334;3.244;2023-04-01T11:32:02;9.50;99.90
22813;DHT22;11573;51.334;3.244;2023-04-01T11:35:12;9.50;99.90
22813;DHT22;11573;51.334;3.244;2023-04-01T11:38:02;9.40;99.90
22813;DHT22;11573;51.334;3.244;2023-04-01T11:44:25;9.60;99.90
22813;DHT22;11573;51.334;3.244;2023-04-01T11:47:28;9.80;99.90
22813;DHT22;11573;51.334;3.244;2023-04-01T11:55:50;9.90;99.90
22813;DHT22;11573;51.334;3.244;2023-04-01T12:08:02;9.80;99.90
22813;DHT22;11573;51.334;3.244;2023-04-01T12:18:55;9.70;99.90
22813;DHT22;11573;51.334;3.244;2023-04-01T12:25:01;9.70;99.90
22813;DHT22;11573;51.334;3.244;2023-04-01T12:32:45;9.80;99.90
22813;DHT22;11573;51.334;3.244;2023-04-01T12:52:09;9.30;99.90
22813;DHT22;11573;51.334;3.244;2023-04-01T13:06:19;9.30;99.90
22813;DHT22;11573;51.334;3.244;2023-04-01T13:29:15;9.30;99.90
22813;DHT22;11573;51.334;3.244;2023-04-01T13:32:10;9.50;99.90
22813;DHT22;11573;51.334;3.244;2023-04-01T13:40:23;9.20;99.90
22813;DHT22;11573;51.334;3.244;2023-04-01T13:43:16;9.10;99.90
22813;DHT22;11573;51.334;3.244;2023-04-01T13:46:09;9.10;99.90
22813;DHT22;11573;51.334;3.244;2023-04-01T13:49:22;9.00;99.90
22813;DHT22;11573;51.334;3.244;2023-04-01T13:52:07;9.10;99.90
22813;DHT22;11573;51.334;3.244;2023-04-01T14:00:38;9.20;99.90
22813;DHT22;11573;51.334;3.244;2023-04-01T14:12:02;9.70;99.90
22813;DHT22;11573;51.334;3.244;2023-04-01T14:23:13;9.70;99.90
22813;DHT22;11573;51.334;3.244;2023-04-01T14:31:37;9.40;99.90
22813;DHT22;11573;51.334;3.244;2023-04-01T14:34:12;9.40;99.90
22813;DHT22;11573;51.334;3.244;2023-04-01T14:45:20;9.30;99.90
22813;DHT22;11573;51.334;3.244;2023-04-01T14:50:52;9.20;99.90
22813;DHT22;11573;51.334;3.244;2023-04-01T14:53:28;9.10;99.90
22813;DHT22;11573;51.334;3.244;2023-04-01T14:56:01;9.10;99.90
22813;DHT22;11573;51.334;3.244;2023-04-01T15:15:25;9.00;99.90
22813;DHT22;11573;51.334;3.244;2023-04-01T15:20:39;8.90;99.90
22813;DHT22;11573;51.334;3.244;2023-04-01T15:26:11;8.90;99.90
22813;DHT22;11573;51.334;3.244;2023-04-01T15:37:52;8.90;99.90
22813;DHT22;11573;51.334;3.244;2023-04-01T16:03:48;9.10;99.90
22813;DHT22;11573;51.334;3.244;2023-04-01T16:09:53;9.10;99.90
22813;DHT22;11573;51.334;3.244;2023-04-01T16:12:13;9.10;99.90
22813;DHT22;11573;51.334;3.244;2023-04-01T16:26:16;9.10;99.90
22813;DHT22;11573;51.334;3.244;2023-04-01T16:29:12;9.10;99.90
22813;DHT22;11573;51.334;3.244;2023-04-01T16:37:15;9.10;99.90
22813;DHT22;11573;51.334;3.244;2023-04-01T16:42:57;9.10;99.90
22813;DHT22;11573;51.334;3.244;2023-04-01T16:47:40;9.10;99.90
22813;DHT22;11573;51.334;3.244;2023-04-01T16:55:18;8.80;99.90
22813;DHT22;11573;51.334;3.244;2023-04-01T16:57:57;8.90;99.90
22813;DHT22;11573;51.334;3.244;2023-04-01T17:00:37;8.80;99.90
22813;DHT22;11573;51.334;3.244;2023-04-01T17:03:11;8.80;99.90
22813;DHT22;11573;51.334;3.244;2023-04-01T17:13:39;8.70;99.90
22813;DHT22;11573;51.334;3.244;2023-04-01T17:35:39;8.40;99.90
22813;DHT22;11573;51.334;3.244;2023-04-01T17:41:09;8.40;99.90
22813;DHT22;11573;51.334;3.244;2023-04-01T17:49:35;8.40;99.90
22813;DHT22;11573;51.334;3.244;2023-04-01T17:52:21;8.40;99.90
22813;DHT22;11573;51.334;3.244;2023-04-01T18:03:54;8.20;99.90
22813;DHT22;11573;51.334;3.244;2023-04-01T18:06:55;8.30;99.90
22813;DHT22;11573;51.334;3.244;2023-04-01T18:15:14;8.20;99.90
22813;DHT22;11573;51.334;3.244;2023-04-01T18:24:05;8.20;99.90
22813;DHT22;11573;51.334;3.244;2023-04-01T18:26:39;8.20;99.90
22813;DHT22;11573;51.334;3.244;2023-04-01T18:29:32;8.20;99.90
22813;DHT22;11573;51.334;3.244;2023-04-01T18:32:24;8.20;99.90
22813;DHT22;11573;51.334;3.244;2023-04-01T18:40:20;8.30;99.90
22813;DHT22;11573;51.334;3.244;2023-04-01T18:51:09;8.20;99.90
22813;DHT22;11573;51.334;3.244;2023-04-01T18:53:48;8.20;99.90
22813;DHT22;11573;51.334;3.244;2023-04-01T18:56:30;8.20;99.90
22813;DHT22;11573;51.334;3.244;2023-04-01T19:04:31;8.20;99.90
22813;DHT22;11573;51.334;3.244;2023-04-01T19:07:34;8.20;99.90
22813;DHT22;11573;51.334;3.244;2023-04-01T19:18:23;8.20;99.90
22813;DHT22;11573;51.334;3.244;2023-04-01T19:21:07;8.20;99.90
22813;DHT22;11573;51.334;3.244;2023-04-01T19:23:53;8.20;99.90
22813;DHT22;11573;51.334;3.244;2023-04-01T19:26:45;8.20;99.90
22813;DHT22;11573;51.334;3.244;2023-04-01T19:35:13;8.10;99.90
22813;DHT22;11573;51.334;3.244;2023-04-01T19:40:43;8.10;99.90
22813;DHT22;11573;51.334;3.244;2023-04-01T19:57:54;8.10;99.90
22813;DHT22;11573;51.334;3.244;2023-04-01T20:08:36;8.10;99.90
22813;DHT22;11573;51.334;3.244;2023-04-01T20:11:06;8.10;99.90
22813;DHT22;11573;51.334;3.244;2023-04-01T20:16:23;8.00;99.90
22813;DHT22;11573;51.334;3.244;2023-04-01T20:19:04;8.00;99.90
22813;DHT22;11573;51.334;3.244;2023-04-01T20:21:35;8.00;99.90
22813;DHT22;11573;51.334;3.244;2023-04-01T20:24:20;8.00;99.90
22813;DHT22;11573;51.334;3.244;2023-04-01T20:26:58;7.90;99.90
22813;DHT22;11573;51.334;3.244;2023-04-01T20:35:11;8.00;99.90
22813;DHT22;11573;51.334;3.244;2023-04-01T20:40:40;8.10;99.90
22813;DHT22;11573;51.334;3.244;2023-04-01T20:43:23;8.00;99.90
22813;DHT22;11573;51.334;3.244;2023-04-01T20:46:21;7.90;99.90
22813;DHT22;11573;51.334;3.244;2023-04-01T20:51:39;7.90;99.90
22813;DHT22;11573;51.334;3.244;2023-04-01T20:54:35;7.90;99.90
22813;DHT22;11573;51.334;3.244;2023-04-01T20:57:24;7.90;99.90
22813;DHT22;11573;51.334;3.244;2023-04-01T21:05:16;7.80;99.90
22813;DHT22;11573;51.334;3.244;2023-04-01T21:07:55;7.80;99.90
22813;DHT22;11573;51.334;3.244;2023-04-01T21:30:35;7.90;99.90
22813;DHT22;11573;51.334;3.244;2023-04-01T21:40:59;7.90;99.90
22813;DHT22;11573;51.334;3.244;2023-04-01T21:58:17;7.90;99.90
22813;DHT22;11573;51.334;3.244;2023-04-01T22:03:58;8.00;99.90
22813;DHT22;11573;51.334;3.244;2023-04-01T22:09:21;8.00;99.90
22813;DHT22;11573;51.334;3.244;2023-04-01T22:14:45;8.00;99.90
22813;DHT22;11573;51.334;3.244;2023-04-01T22:25:18;8.00;99.90
22813;DHT22;11573;51.334;3.244;2023-04-01T22:27:55;8.00;99.90
22813;DHT22;11573;51.334;3.244;2023-04-01T22:30:42;8.00;99.90
22813;DHT22;11573;51.334;3.244;2023-04-01T22:43:56;8.00;99.90
22813;DHT22;11573;51.334;3.244;2023-04-01T22:46:55;8.00;99.90
22813;DHT22;11573;51.334;3.244;2023-04-01T22:49:34;8.00;99.90
22813;DHT22;11573;51.334;3.244;2023-04-01T22:52:43;8.00;99.90
22813;DHT22;11573;51.334;3.244;2023-04-01T22:55:10;8.00;99.90
22813;DHT22;11573;51.334;3.244;2023-04-01T22:58:04;8.00;99.90
22813;DHT22;11573;51.334;3.244;2023-04-01T23:00:48;8.00;99.90
22813;DHT22;11573;51.334;3.244;2023-04-01T23:05:55;8.10;99.90
22813;DHT22;11573;51.334;3.244;2023-04-01T23:10:56;8.00;99.90
22813;DHT22;11573;51.334;3.244;2023-04-01T23:13:29;8.00;99.90
22813;DHT22;11573;51.334;3.244;2023-04-01T23:15:57;7.90;99.90
22813;DHT22;11573;51.334;3.244;2023-04-01T23:27:03;7.90;99.90
22813;DHT22;11573;51.334;3.244;2023-04-01T23:29:35;8.00;99.90
22813;DHT22;11573;51.334;3.244;2023-04-01T23:32:04;8.00;99.90
22813;DHT22;11573;51.334;3.244;2023-04-01T23:34:35;8.00;99.90
22813;DHT22;11573;51.334;3.244;2023-04-01T23:37:11;8.00;99.90
22813;DHT22;11573;51.334;3.244;2023-04-01T23:39:41;8.00;99.90
22813;DHT22;11573;51.334;3.244;2023-04-01T23:42:27;7.90;99.90
22813;DHT22;11573;51.334;3.244;2023-04-01T23:45:18;7.90;99.90
22813;DHT22;11573;51.334;3.244;2023-04-01T23:47:48;7.90;99.90
22813;DHT22;11573;51.334;3.244;2023-04-01T23:50:25;7.90;99.90
22813;DHT22;11573;51.334;3.244;2023-04-01T23:53:01;8.00;99.90
22813;DHT22;11573;51.334;3.244;2023-04-01T23:55:33;8.00;99.90
